createdAt,value
2023-01-26T00:01:34.350Z,42.10
2023-01-26T00:04:00.987Z,43.25
2023-01-26T00:06:27.662Z,41.85
2023-01-26T00:08:56.760Z,52.78
2023-01-26T00:11:26.883Z,50.70
2023-01-26T00:13:55.110Z,48.55
2023-01-26T00:16:22.021Z,55.35
2023-01-26T00:18:48.769Z,52.45
2023-01-26T00:21:18.500Z,53.08
2023-01-26T00:23:46.003Z,57.78
2023-01-26T00:26:21.358Z,51.08
2023-01-26T00:28:49.267Z,50.55
2023-01-26T00:31:21.694Z,48.95
2023-01-26T00:33:48.568Z,53.60
2023-01-26T00:36:15.527Z,59.50
2023-01-26T00:38:42.750Z,55.10
2023-01-26T00:41:30.453Z,56.97
2023-01-26T00:43:57.261Z,58.60
2023-01-26T00:46:23.974Z,55.78
2023-01-26T00:48:50.641Z,57.42
2023-01-26T00:51:17.312Z,53.65
2023-01-26T00:53:43.953Z,48.63
2023-01-26T00:56:14.703Z,49.60
2023-01-26T00:58:42.963Z,53.83
2023-01-26T01:01:11.203Z,56.73
2023-01-26T01:03:40.889Z,53.85
2023-01-26T01:06:07.583Z,63.40
2023-01-26T01:08:34.145Z,62.15
2023-01-26T01:11:09.740Z,60.70
2023-01-26T01:13:36.474Z,61.28
2023-01-26T01:16:08.919Z,58.05
2023-01-26T01:18:36.383Z,58.35
2023-01-26T01:21:11.161Z,58.33
2023-01-26T01:23:38.383Z,53.45
2023-01-26T01:26:05.293Z,58.95
2023-01-26T01:28:33.417Z,60.40
2023-01-26T01:31:00.270Z,62.65
2023-01-26T01:33:26.943Z,51.35
2023-01-26T01:36:01.583Z,60.58
2023-01-26T01:38:30.440Z,58.83
2023-01-26T01:40:57.822Z,66.55
2023-01-26T01:43:25.932Z,67.55
2023-01-26T01:45:53.936Z,63.58
2023-01-26T01:48:31.203Z,61.45
2023-01-26T01:51:03.113Z,60.97
2023-01-26T01:53:34.570Z,68.97
2023-01-26T01:56:05.725Z,75.60
2023-01-26T01:58:36.063Z,67.97
2023-01-26T02:01:02.907Z,73.45
2023-01-26T02:03:31.737Z,63.33
2023-01-26T02:06:12.297Z,63.67
2023-01-26T02:08:43.344Z,71.90
2023-01-26T02:11:36.440Z,71.93
2023-01-26T02:14:06.730Z,67.65
2023-01-26T02:16:34.911Z,67.95
2023-01-26T02:19:03.057Z,47.38
2023-01-26T02:21:31.293Z,73.95
2023-01-26T02:24:18.701Z,68.10
2023-01-26T02:26:45.416Z,72.32
2023-01-26T02:29:12.097Z,69.22
2023-01-26T02:31:42.977Z,67.60
2023-01-26T02:34:09.871Z,82.13
2023-01-26T02:36:37.070Z,70.70
2023-01-26T02:39:23.571Z,82.18
2023-01-26T02:42:11.433Z,80.82
2023-01-26T02:44:41.513Z,71.25
2023-01-26T02:47:16.452Z,63.53
2023-01-26T02:49:52.870Z,91.30
2023-01-26T02:52:28.768Z,69.90
2023-01-26T02:55:21.475Z,88.38
2023-01-26T02:57:49.934Z,68.20
2023-01-26T03:00:22.547Z,72.63
2023-01-26T03:02:53.434Z,67.45
2023-01-26T03:05:20.296Z,79.95
2023-01-26T03:07:47.237Z,90.72
2023-01-26T03:10:16.575Z,78.65
2023-01-26T03:12:43.183Z,60.67
2023-01-26T03:15:29.662Z,53.22
2023-01-26T03:18:22.943Z,59.08
2023-01-26T03:21:09.176Z,57.53
2023-01-26T03:23:54.306Z,54.83
2023-01-26T03:26:41.048Z,48.45
2023-01-26T03:29:07.984Z,48.00
2023-01-26T03:31:34.599Z,58.72
2023-01-26T03:34:01.282Z,49.08
2023-01-26T03:36:29.125Z,52.22
2023-01-26T03:38:55.992Z,56.30
2023-01-26T03:41:41.294Z,48.80
2023-01-26T03:44:26.583Z,49.05
2023-01-26T03:47:12.798Z,41.95
2023-01-26T03:49:58.436Z,47.55
2023-01-26T03:52:43.748Z,46.53
2023-01-26T03:55:29.359Z,42.13
2023-01-26T03:57:55.978Z,39.60
2023-01-26T04:00:22.750Z,46.63
2023-01-26T04:03:09.767Z,37.30
2023-01-26T04:05:54.990Z,43.20
2023-01-26T04:08:41.693Z,36.17
2023-01-26T04:11:09.286Z,35.17
2023-01-26T04:13:54.363Z,31.75
2023-01-26T04:16:47.839Z,28.75
2023-01-26T04:19:33.797Z,33.42
2023-01-26T04:22:01.489Z,39.28
2023-01-26T04:24:29.935Z,27.63
2023-01-26T04:26:58.589Z,34.50
2023-01-26T04:29:30.211Z,38.75
2023-01-26T04:31:56.870Z,39.20
2023-01-26T04:34:23.805Z,31.08
2023-01-26T04:36:50.576Z,34.08
2023-01-26T04:39:19.328Z,35.30
2023-01-26T04:41:48.856Z,39.70
2023-01-26T04:44:16.943Z,42.42
2023-01-26T04:46:43.704Z,33.58
2023-01-26T04:49:13.142Z,30.45
2023-01-26T04:51:39.810Z,36.10
2023-01-26T04:54:06.720Z,30.17
2023-01-26T04:56:37.893Z,30.95
2023-01-26T04:59:07.143Z,37.10
2023-01-26T05:01:35.798Z,37.85
2023-01-26T05:04:06.051Z,30.42
2023-01-26T05:06:33.753Z,34.22
2023-01-26T05:09:00.673Z,36.88
2023-01-26T05:11:28.006Z,42.45
2023-01-26T05:14:13.455Z,47.58
2023-01-26T05:19:48.941Z,45.20
2023-01-26T05:22:28.080Z,39.55
2023-01-26T05:25:13.321Z,38.72
2023-01-26T05:27:47.753Z,44.95
2023-01-26T05:30:15.333Z,45.75
2023-01-26T05:32:42.655Z,43.85
2023-01-26T05:35:10.040Z,53.55
2023-01-26T05:37:37.044Z,46.40
2023-01-26T05:40:04.147Z,40.25
2023-01-26T05:42:31.783Z,48.97
2023-01-26T05:45:22.300Z,38.22
2023-01-26T05:47:51.423Z,50.90
2023-01-26T05:50:18.784Z,42.75
2023-01-26T05:53:06.190Z,48.20
2023-01-26T05:55:35.683Z,46.13
2023-01-26T05:58:02.465Z,50.50
2023-01-26T06:00:31.052Z,40.83
2023-01-26T06:03:05.337Z,35.63
2023-01-26T06:05:32.403Z,40.28
2023-01-26T06:08:01.574Z,44.88
2023-01-26T06:10:35.685Z,43.35
2023-01-26T06:13:23.334Z,46.40
2023-01-26T06:16:02.367Z,46.35
2023-01-26T06:18:30.283Z,54.90
2023-01-26T06:21:03.357Z,46.30
2023-01-26T06:23:30.045Z,44.20
2023-01-26T06:26:00.685Z,47.30
2023-01-26T06:28:30.873Z,45.58
2023-01-26T06:31:05.794Z,44.38
2023-01-26T06:33:36.898Z,40.85
2023-01-26T06:36:06.315Z,51.38
2023-01-26T06:38:32.974Z,43.10
2023-01-26T06:41:04.724Z,46.58
2023-01-26T06:43:33.881Z,47.03
2023-01-26T06:46:01.309Z,38.35
2023-01-26T06:48:29.829Z,42.78
2023-01-26T06:50:58.089Z,45.58
2023-01-26T06:53:39.981Z,47.00
2023-01-26T06:56:24.832Z,46.47
2023-01-26T06:59:20.609Z,45.35
2023-01-26T07:02:19.677Z,42.50
2023-01-26T07:04:47.574Z,45.60
2023-01-26T07:07:14.721Z,45.00
2023-01-26T07:09:41.492Z,57.45
2023-01-26T07:12:08.102Z,57.80
2023-01-26T07:14:35.012Z,53.00
2023-01-26T07:17:02.297Z,48.78
2023-01-26T07:19:31.258Z,51.85
2023-01-26T07:21:57.945Z,52.67
2023-01-26T07:24:24.755Z,49.53
2023-01-26T07:26:51.535Z,49.65
2023-01-26T07:29:18.485Z,48.45
2023-01-26T07:31:45.231Z,47.28
2023-01-26T07:34:12.295Z,55.22
2023-01-26T07:36:39.125Z,53.08
2023-01-26T07:39:08.317Z,43.00
2023-01-26T07:41:35.358Z,43.88
2023-01-26T07:44:10.529Z,41.95
2023-01-26T07:46:37.279Z,45.72
2023-01-26T07:49:03.911Z,44.22
2023-01-26T07:51:30.559Z,53.25
2023-01-26T07:53:57.342Z,43.45
2023-01-26T07:56:23.914Z,36.95
2023-01-26T07:58:52.378Z,43.72
2023-01-26T08:01:19.475Z,43.15
2023-01-26T08:03:46.125Z,38.45
2023-01-26T08:06:14.367Z,39.78
2023-01-26T08:08:42.639Z,33.57
2023-01-26T08:11:10.552Z,46.42
2023-01-26T08:13:37.854Z,49.05
2023-01-26T08:16:09.340Z,53.08
2023-01-26T08:18:36.136Z,53.17
2023-01-26T08:21:03.885Z,46.80
2023-01-26T08:23:30.686Z,49.97
2023-01-26T08:26:05.704Z,48.20
2023-01-26T08:28:33.644Z,48.03
2023-01-26T08:31:08.433Z,51.42
2023-01-26T08:33:35.393Z,46.13
2023-01-26T08:36:04.407Z,50.72
2023-01-26T08:38:32.082Z,43.88
2023-01-26T08:40:59.440Z,45.95
2023-01-26T08:43:26.046Z,45.70
2023-01-26T08:45:53.296Z,43.75
2023-01-26T08:48:20.458Z,44.38
2023-01-26T08:50:47.570Z,51.63
2023-01-26T08:53:14.218Z,49.38
2023-01-26T08:55:40.885Z,46.70
2023-01-26T08:58:07.506Z,48.67
2023-01-26T09:00:34.194Z,46.88
2023-01-26T09:03:03.029Z,45.55
2023-01-26T09:05:35.831Z,39.83
2023-01-26T09:08:08.071Z,39.42
2023-01-26T09:10:36.816Z,44.15
2023-01-26T09:13:03.385Z,45.00
2023-01-26T09:15:30.422Z,44.28
2023-01-26T09:17:58.605Z,46.85
2023-01-26T09:20:27.187Z,45.50
2023-01-26T09:22:54.693Z,41.72
2023-01-26T09:25:21.509Z,44.97
2023-01-26T09:27:48.312Z,44.22
2023-01-26T09:30:15.433Z,40.72
2023-01-26T09:32:42.039Z,36.90
2023-01-26T09:35:14.372Z,33.75
2023-01-26T09:37:43.745Z,34.45
2023-01-26T09:40:19.774Z,36.28
2023-01-26T09:43:05.203Z,40.85
2023-01-26T09:45:41.381Z,31.60
2023-01-26T09:48:19.480Z,38.40
2023-01-26T09:50:55.287Z,38.28
2023-01-26T09:53:47.734Z,35.45
2023-01-26T09:56:25.585Z,32.85
2023-01-26T09:58:57.891Z,35.05
2023-01-26T10:01:36.186Z,33.33
2023-01-26T10:04:18.375Z,33.83
2023-01-26T10:06:46.246Z,39.55
2023-01-26T10:09:26.930Z,38.25
2023-01-26T10:11:59.763Z,40.60
2023-01-26T10:14:32.425Z,37.08
2023-01-26T10:17:00.611Z,45.10
2023-01-26T10:19:45.651Z,36.65
2023-01-26T10:22:27.461Z,39.72
2023-01-26T10:24:57.160Z,43.10
2023-01-26T10:27:23.756Z,36.30
2023-01-26T10:29:50.456Z,39.30
2023-01-26T10:32:18.507Z,35.42
2023-01-26T10:34:48.267Z,37.53
2023-01-26T10:37:24.339Z,40.90
2023-01-26T10:40:02.586Z,35.47
2023-01-26T10:42:32.343Z,37.60
2023-01-26T10:45:02.113Z,42.08
2023-01-26T10:47:29.532Z,41.20
2023-01-26T10:50:24.866Z,36.25
2023-01-26T10:52:58.768Z,38.80
2023-01-26T10:55:25.567Z,41.55
2023-01-26T10:57:52.387Z,37.10
2023-01-26T11:00:19.982Z,43.80
2023-01-26T11:02:54.900Z,34.83
2023-01-26T11:05:26.297Z,40.65
2023-01-26T11:08:00.358Z,41.00
2023-01-26T11:10:38.552Z,35.47
2023-01-26T11:13:20.294Z,33.90
2023-01-26T11:16:00.829Z,42.85
2023-01-26T11:18:49.039Z,35.38
2023-01-26T11:21:18.373Z,42.13
2023-01-26T11:23:54.021Z,44.78
2023-01-26T11:26:30.625Z,39.15
2023-01-26T11:29:29.301Z,47.28
2023-01-26T11:32:14.541Z,38.05
2023-01-26T11:35:10.604Z,41.97
2023-01-26T11:38:12.092Z,34.17
2023-01-26T11:40:51.334Z,36.00
2023-01-26T11:43:26.808Z,32.75
2023-01-26T11:46:16.448Z,32.25
2023-01-26T11:49:20.787Z,33.90
2023-01-26T11:51:50.348Z,35.92
2023-01-26T11:54:27.403Z,33.50
2023-01-26T11:57:04.546Z,35.30
2023-01-26T11:59:38.213Z,33.60
2023-01-26T12:02:14.548Z,32.20
2023-01-26T12:04:46.859Z,32.72
2023-01-26T12:07:22.522Z,35.08
2023-01-26T12:09:52.721Z,34.53
2023-01-26T12:12:29.874Z,31.92
2023-01-26T12:15:19.845Z,29.05
2023-01-26T12:18:12.081Z,32.72
2023-01-26T12:20:42.252Z,30.85
2023-01-26T12:23:08.815Z,35.35
2023-01-26T12:25:47.814Z,33.20
2023-01-26T12:28:26.510Z,29.88
2023-01-26T12:31:04.507Z,32.75
2023-01-26T12:33:35.789Z,29.23
2023-01-26T12:36:02.331Z,25.90
2023-01-26T12:38:49.765Z,29.08
2023-01-26T12:41:33.313Z,30.40
2023-01-26T12:44:17.382Z,31.45
2023-01-26T12:46:51.757Z,31.55
2023-01-26T12:49:27.483Z,27.45
2023-01-26T12:51:59.692Z,34.03
2023-01-26T12:54:49.980Z,27.50
2023-01-26T12:57:21.217Z,26.65
2023-01-26T12:59:49.187Z,26.52
2023-01-26T13:02:15.922Z,26.60
2023-01-26T13:04:47.132Z,24.10
2023-01-26T13:07:38.540Z,23.25
2023-01-26T13:10:14.953Z,22.40
2023-01-26T13:12:52.627Z,24.33
2023-01-26T13:15:21.925Z,29.15
2023-01-26T13:18:03.247Z,24.38
2023-01-26T13:20:48.514Z,25.83
2023-01-26T13:23:36.661Z,21.63
2023-01-26T13:26:18.554Z,21.05
2023-01-26T13:28:46.977Z,25.40
2023-01-26T13:31:32.971Z,23.92
2023-01-26T13:34:03.373Z,24.15
2023-01-26T13:36:34.930Z,23.60
2023-01-26T13:39:12.916Z,25.83
2023-01-26T13:41:47.692Z,24.42
2023-01-26T13:44:22.285Z,21.30
2023-01-26T13:46:56.356Z,24.15
2023-01-26T13:49:43.132Z,20.73
2023-01-26T13:52:25.731Z,22.45
2023-01-26T13:54:54.730Z,22.40
2023-01-26T13:57:27.287Z,21.70
2023-01-26T14:00:00.176Z,21.85
2023-01-26T14:02:31.754Z,26.15
2023-01-26T14:04:59.447Z,21.50
2023-01-26T14:07:44.914Z,19.75
2023-01-26T14:10:19.063Z,20.20
2023-01-26T14:12:48.769Z,23.17
2023-01-26T14:15:33.729Z,18.27
2023-01-26T14:18:02.438Z,18.33
2023-01-26T14:20:39.587Z,17.35
2023-01-26T14:23:18.705Z,16.80
2023-01-26T14:26:04.943Z,17.83
2023-01-26T14:28:36.337Z,17.65
2023-01-26T14:31:15.993Z,17.35
2023-01-26T14:33:43.051Z,17.23
2023-01-26T14:36:16.497Z,19.40
2023-01-26T14:38:48.517Z,25.40
2023-01-26T14:41:30.251Z,21.85
2023-01-26T14:44:01.852Z,19.13
2023-01-26T14:47:13.189Z,15.63
2023-01-26T14:49:55.986Z,20.15
2023-01-26T14:52:26.065Z,19.40
2023-01-26T14:54:55.369Z,15.07
2023-01-26T14:57:25.239Z,15.50
2023-01-26T14:59:55.126Z,16.73
2023-01-26T15:02:37.464Z,18.17
2023-01-26T15:05:13.423Z,18.23
2023-01-26T15:07:45.093Z,16.27
2023-01-26T15:10:30.711Z,17.58
2023-01-26T15:13:08.187Z,17.52
2023-01-26T15:15:40.951Z,16.05
2023-01-26T15:18:13.664Z,17.83
2023-01-26T15:20:41.563Z,16.58
2023-01-26T15:23:51.078Z,15.70
2023-01-26T15:26:32.362Z,17.30
2023-01-26T15:29:03.077Z,15.30
2023-01-26T15:31:42.091Z,18.30
2023-01-26T15:34:36.679Z,16.85
2023-01-26T15:37:30.797Z,16.73
2023-01-26T15:39:58.159Z,16.27
2023-01-26T15:42:31.453Z,18.02
2023-01-26T15:44:59.226Z,17.50
2023-01-26T15:47:26.985Z,16.05
2023-01-26T15:49:55.050Z,16.48
2023-01-26T15:52:26.564Z,18.58
2023-01-26T15:54:54.946Z,16.40
2023-01-26T15:57:23.347Z,17.00
2023-01-26T15:59:50.666Z,16.90
2023-01-26T16:02:22.468Z,18.80
2023-01-26T16:04:50.056Z,20.17
2023-01-26T16:07:18.786Z,20.52
2023-01-26T16:09:45.745Z,18.17
2023-01-26T16:12:31.189Z,16.08
2023-01-26T16:14:59.669Z,15.65
2023-01-26T16:17:27.722Z,19.02
2023-01-26T16:19:55.429Z,23.02
2023-01-26T16:22:22.208Z,24.15
2023-01-26T16:24:48.821Z,18.92
2023-01-26T16:27:15.671Z,19.10
2023-01-26T16:29:43.242Z,22.55
2023-01-26T16:32:29.801Z,20.33
2023-01-26T16:35:00.297Z,20.83
2023-01-26T16:37:28.022Z,18.88
2023-01-26T16:39:55.358Z,17.65
2023-01-26T16:42:22.655Z,27.52
2023-01-26T16:44:50.711Z,20.58
2023-01-26T16:47:18.373Z,20.63
2023-01-26T16:49:46.232Z,21.15
2023-01-26T16:52:15.409Z,19.52
2023-01-26T16:54:46.125Z,21.25
2023-01-26T16:57:14.049Z,17.50
2023-01-26T16:59:41.367Z,20.60
2023-01-26T17:02:28.257Z,18.38
2023-01-26T17:04:55.804Z,16.95
2023-01-26T17:07:22.969Z,18.38
2023-01-26T17:09:51.131Z,18.08
2023-01-26T17:12:18.439Z,18.60
2023-01-26T17:14:45.829Z,16.95
2023-01-26T17:17:12.949Z,17.02
2023-01-26T17:19:40.419Z,19.20
2023-01-26T17:22:08.323Z,19.08
2023-01-26T17:24:36.085Z,20.13
2023-01-26T17:27:03.754Z,19.65
2023-01-26T17:29:31.112Z,18.42
2023-01-26T17:31:59.990Z,19.20
2023-01-26T17:34:27.604Z,21.75
2023-01-26T17:36:57.595Z,18.10
2023-01-26T17:39:24.400Z,17.63
2023-01-26T17:41:51.152Z,17.48
2023-01-26T17:44:17.916Z,19.38
2023-01-26T17:46:44.444Z,20.65
2023-01-26T17:49:11.214Z,18.65
2023-01-26T17:51:37.846Z,15.07
2023-01-26T17:54:04.480Z,13.88
2023-01-26T17:56:31.102Z,12.88
2023-01-26T17:58:57.640Z,16.83
2023-01-26T18:01:25.779Z,14.23
2023-01-26T18:03:53.687Z,14.80
2023-01-26T18:06:20.594Z,15.32
2023-01-26T18:08:47.241Z,15.95
2023-01-26T18:11:15.254Z,14.45
2023-01-26T18:13:42.535Z,19.60
2023-01-26T18:16:10.794Z,17.10
2023-01-26T18:18:37.727Z,19.30
2023-01-26T18:21:19.088Z,14.77
2023-01-26T18:23:47.573Z,17.05
2023-01-26T18:26:15.645Z,16.90
2023-01-26T18:28:42.478Z,20.13
2023-01-26T18:31:17.387Z,20.25
2023-01-26T18:33:45.002Z,18.55
2023-01-26T18:36:14.148Z,20.27
2023-01-26T18:38:49.402Z,21.23
2023-01-26T18:41:17.497Z,18.70
2023-01-26T18:43:44.559Z,19.45
2023-01-26T18:46:11.926Z,19.80
2023-01-26T18:48:38.620Z,21.05
2023-01-26T18:51:05.670Z,25.38
2023-01-26T18:53:33.395Z,22.92
2023-01-26T18:56:05.710Z,22.92
2023-01-26T18:58:33.019Z,23.83
2023-01-26T19:01:01.052Z,22.35
2023-01-26T19:03:27.698Z,22.25
2023-01-26T19:05:54.253Z,25.65
2023-01-26T19:08:23.850Z,21.67
2023-01-26T19:10:51.381Z,24.00
2023-01-26T19:13:17.964Z,23.35
2023-01-26T19:15:48.775Z,23.20
2023-01-26T19:18:15.882Z,21.90
2023-01-26T19:20:42.615Z,21.10
2023-01-26T19:23:10.111Z,23.23
2023-01-26T19:25:37.725Z,20.38
2023-01-26T19:28:04.789Z,20.05
2023-01-26T19:30:31.382Z,19.73
2023-01-26T19:33:16.632Z,22.05
2023-01-26T19:35:43.226Z,21.27
2023-01-26T19:38:09.799Z,21.33
2023-01-26T19:40:36.465Z,22.83
2023-01-26T19:43:06.503Z,19.73
2023-01-26T19:45:33.351Z,20.80
2023-01-26T19:47:59.893Z,19.38
2023-01-26T19:50:26.591Z,21.20
2023-01-26T19:52:53.210Z,20.73
2023-01-26T19:55:19.810Z,23.08
2023-01-26T19:57:46.342Z,19.65
2023-01-26T20:00:14.481Z,21.85
2023-01-26T20:02:41.840Z,20.95
2023-01-26T20:05:08.921Z,17.55
2023-01-26T20:07:37.629Z,19.67
2023-01-26T20:10:06.283Z,20.80
2023-01-26T20:12:33.399Z,19.48
2023-01-26T20:15:00.821Z,17.48
2023-01-26T20:17:27.519Z,17.48
2023-01-26T20:19:54.879Z,19.90
2023-01-26T20:22:23.275Z,18.92
2023-01-26T20:24:50.289Z,17.67
2023-01-26T20:27:16.992Z,17.52
2023-01-26T20:29:43.574Z,16.92
2023-01-26T20:32:10.305Z,18.95
2023-01-26T20:34:37.794Z,17.15
2023-01-26T20:37:05.691Z,17.40
2023-01-26T20:39:32.233Z,19.10
2023-01-26T20:41:58.819Z,20.85
2023-01-26T20:44:25.557Z,15.38
2023-01-26T20:46:52.384Z,17.55
2023-01-26T20:49:19.206Z,17.75
2023-01-26T20:51:47.608Z,17.30
2023-01-26T20:54:16.132Z,16.77
2023-01-26T20:56:45.723Z,16.55
2023-01-26T20:59:12.839Z,16.70
2023-01-26T21:01:39.582Z,16.60
2023-01-26T21:04:06.562Z,18.27
2023-01-26T21:06:34.121Z,17.73
2023-01-26T21:09:01.115Z,17.98
2023-01-26T21:11:30.695Z,16.65
2023-01-26T21:14:00.598Z,17.65
2023-01-26T21:16:28.178Z,17.35
2023-01-26T21:18:54.842Z,17.15
2023-01-26T21:21:22.224Z,20.80
2023-01-26T21:23:49.448Z,19.10
2023-01-26T21:26:21.780Z,17.83
2023-01-26T21:28:53.590Z,19.40
2023-01-26T21:31:22.066Z,19.52
2023-01-26T21:33:49.608Z,16.58
2023-01-26T21:36:19.637Z,17.10
2023-01-26T21:38:48.265Z,17.17
2023-01-26T21:41:39.644Z,23.48
2023-01-26T21:44:12.824Z,19.23
2023-01-26T21:46:39.673Z,21.50
2023-01-26T21:49:07.828Z,24.02
2023-01-26T21:51:54.031Z,20.38
2023-01-26T21:54:20.631Z,22.08
2023-01-26T21:56:47.179Z,26.02
2023-01-26T21:59:16.259Z,22.08
2023-01-26T22:01:51.443Z,20.45
2023-01-26T22:04:23.673Z,20.08
2023-01-26T22:06:50.650Z,22.25
2023-01-26T22:09:17.904Z,28.33
2023-01-26T22:11:45.346Z,27.38
2023-01-26T22:14:20.357Z,23.33
2023-01-26T22:16:47.324Z,25.70
2023-01-26T22:19:14.018Z,24.05
2023-01-26T22:21:41.089Z,28.48
2023-01-26T22:24:11.562Z,30.55
2023-01-26T22:26:38.623Z,27.10
2023-01-26T22:29:06.042Z,25.77
2023-01-26T22:31:33.129Z,28.33
2023-01-26T22:34:00.599Z,25.88
2023-01-26T22:36:28.440Z,28.13
2023-01-26T22:38:55.287Z,30.88
2023-01-26T22:41:24.758Z,27.73
2023-01-26T22:43:54.310Z,30.90
2023-01-26T22:46:22.871Z,23.10
2023-01-26T22:48:50.401Z,26.42
2023-01-26T22:51:20.493Z,28.05
2023-01-26T22:53:49.063Z,28.45
2023-01-26T22:56:16.065Z,23.90
2023-01-26T22:58:57.037Z,26.83
2023-01-26T23:01:26.448Z,25.60
2023-01-26T23:03:54.895Z,26.33
2023-01-26T23:06:22.326Z,25.23
2023-01-26T23:08:49.128Z,26.63
2023-01-26T23:11:21.559Z,27.15
2023-01-26T23:13:49.827Z,23.38
2023-01-26T23:16:17.230Z,25.25
2023-01-26T23:18:44.029Z,24.05
2023-01-26T23:21:10.745Z,23.50
2023-01-26T23:23:38.901Z,23.88
2023-01-26T23:26:06.098Z,26.02
2023-01-26T23:28:35.563Z,22.35
2023-01-26T23:31:02.928Z,22.83
2023-01-26T23:33:31.606Z,24.25
2023-01-26T23:35:58.287Z,25.50
2023-01-26T23:38:27.610Z,23.75
2023-01-26T23:40:54.526Z,25.55
2023-01-26T23:43:22.165Z,21.30
2023-01-26T23:45:51.402Z,22.02
2023-01-26T23:48:19.332Z,25.10
2023-01-26T23:50:46.018Z,23.85
2023-01-26T23:53:13.120Z,21.05
2023-01-26T23:55:41.861Z,24.30
2023-01-26T23:58:09.372Z,21.75
